sensor_id;sensor_type;location;lat;lon;timestamp;temperature;humidity
12370;DHT22;6249;52.128;9.986;2023-06-04T00:03:26;12.20;96.50
12370;DHT22;6249;52.128;9.986;2023-06-04T00:13:27;11.80;97.40
12370;DHT22;6249;52.128;9.986;2023-06-04T00:23:28;11.60;99.30
12370;DHT22;6249;52.128;9.986;2023-06-04T00:33:28;11.50;99.90
12370;DHT22;6249;52.128;9.986;2023-06-04T00:43:29;11.10;99.90
12370;DHT22;6249;52.128;9.986;2023-06-04T00:53:32;11.60;99.90
12370;DHT22;6249;52.128;9.986;2023-06-04T01:03:35;10.80;99.90
12370;DHT22;6249;52.128;9.986;2023-06-04T01:13:38;10.50;99.90
12370;DHT22;6249;52.128;9.986;2023-06-04T01:33:39;10.30;99.90
12370;DHT22;6249;52.128;9.986;2023-06-04T01:43:40;10.20;99.90
12370;DHT22;6249;52.128;9.986;2023-06-04T01:53:41;10.10;99.90
12370;DHT22;6249;52.128;9.986;2023-06-04T02:03:44;9.80;99.90
12370;DHT22;6249;52.128;9.986;2023-06-04T02:13:47;9.80;99.90
12370;DHT22;6249;52.128;9.986;2023-06-04T02:23:51;9.50;99.90
12370;DHT22;6249;52.128;9.986;2023-06-04T02:33:52;9.50;99.90
12370;DHT22;6249;52.128;9.986;2023-06-04T02:43:52;9.30;99.90
12370;DHT22;6249;52.128;9.986;2023-06-04T02:53:53;9.50;99.90
12370;DHT22;6249;52.128;9.986;2023-06-04T03:03:54;8.80;99.90
12370;DHT22;6249;52.128;9.986;2023-06-04T03:13:55;8.90;99.90
12370;DHT22;6249;52.128;9.986;2023-06-04T03:23:55;8.80;99.90
12370;DHT22;6249;52.128;9.986;2023-06-04T03:33:56;8.70;99.90
12370;DHT22;6249;52.128;9.986;2023-06-04T03:43:57;8.60;99.90
12370;DHT22;6249;52.128;9.986;2023-06-04T03:53:58;8.50;99.90
12370;DHT22;6249;52.128;9.986;2023-06-04T04:03:59;8.50;99.90
12370;DHT22;6249;52.128;9.986;2023-06-04T04:14:02;8.50;99.90
12370;DHT22;6249;52.128;9.986;2023-06-04T04:24:06;8.70;99.90
12370;DHT22;6249;52.128;9.986;2023-06-04T04:34:07;8.80;99.90
12370;DHT22;6249;52.128;9.986;2023-06-04T04:44:10;8.90;99.90
12370;DHT22;6249;52.128;9.986;2023-06-04T04:54:13;9.10;99.90
12370;DHT22;6249;52.128;9.986;2023-06-04T05:04:14;9.50;99.90
12370;DHT22;6249;52.128;9.986;2023-06-04T05:14:14;9.60;99.90
12370;DHT22;6249;52.128;9.986;2023-06-04T05:24:20;9.90;99.90
12370;DHT22;6249;52.128;9.986;2023-06-04T05:34:21;10.20;99.90
12370;DHT22;6249;52.128;9.986;2023-06-04T05:44:23;10.50;99.90
12370;DHT22;6249;52.128;9.986;2023-06-04T05:54:26;10.90;99.90
12370;DHT22;6249;52.128;9.986;2023-06-04T06:04:27;11.30;99.90
12370;DHT22;6249;52.128;9.986;2023-06-04T06:14:31;11.70;99.90
12370;DHT22;6249;52.128;9.986;2023-06-04T06:24:34;12.20;99.90
12370;DHT22;6249;52.128;9.986;2023-06-04T06:34:37;12.40;99.90
12370;DHT22;6249;52.128;9.986;2023-06-04T06:44:38;12.80;99.90
12370;DHT22;6249;52.128;9.986;2023-06-04T06:54:39;13.10;99.90
12370;DHT22;6249;52.128;9.986;2023-06-04T07:04:42;13.60;99.90
12370;DHT22;6249;52.128;9.986;2023-06-04T07:14:42;13.90;99.90
12370;DHT22;6249;52.128;9.986;2023-06-04T07:24:45;14.50;99.90
12370;DHT22;6249;52.128;9.986;2023-06-04T07:34:46;15.10;99.90
12370;DHT22;6249;52.128;9.986;2023-06-04T07:44:47;15.50;99.20
12370;DHT22;6249;52.128;9.986;2023-06-04T07:54:47;16.00;99.10
12370;DHT22;6249;52.128;9.986;2023-06-04T08:04:50;16.50;95.70
12370;DHT22;6249;52.128;9.986;2023-06-04T08:14:51;16.80;95.80
12370;DHT22;6249;52.128;9.986;2023-06-04T08:24:57;17.50;94.20
12370;DHT22;6249;52.128;9.986;2023-06-04T08:34:57;18.10;94.40
12370;DHT22;6249;52.128;9.986;2023-06-04T08:45:00;18.70;93.60
12370;DHT22;6249;52.128;9.986;2023-06-04T08:55:03;19.50;83.90
12370;DHT22;6249;52.128;9.986;2023-06-04T09:05:05;20.00;83.00
12370;DHT22;6249;52.128;9.986;2023-06-04T09:15:10;20.80;79.90
12370;DHT22;6249;52.128;9.986;2023-06-04T09:25:22;21.70;80.70
12370;DHT22;6249;52.128;9.986;2023-06-04T09:35:25;22.40;70.70
12370;DHT22;6249;52.128;9.986;2023-06-04T09:45:34;23.00;68.40
12370;DHT22;6249;52.128;9.986;2023-06-04T09:55:35;23.70;61.10
12370;DHT22;6249;52.128;9.986;2023-06-04T10:05:36;24.60;58.40
12370;DHT22;6249;52.128;9.986;2023-06-04T10:15:40;25.50;59.90
12370;DHT22;6249;52.128;9.986;2023-06-04T10:25:43;26.20;53.70
12370;DHT22;6249;52.128;9.986;2023-06-04T10:35:45;26.80;51.10
12370;DHT22;6249;52.128;9.986;2023-06-04T10:45:46;27.70;47.00
12370;DHT22;6249;52.128;9.986;2023-06-04T10:55:50;29.00;42.70
12370;DHT22;6249;52.128;9.986;2023-06-04T11:05:52;29.80;40.20
12370;DHT22;6249;52.128;9.986;2023-06-04T11:15:56;30.10;42.30
12370;DHT22;6249;52.128;9.986;2023-06-04T11:26:01;31.60;37.90
12370;DHT22;6249;52.128;9.986;2023-06-04T11:36:01;32.20;36.60
12370;DHT22;6249;52.128;9.986;2023-06-04T11:46:05;32.80;34.10
12370;DHT22;6249;52.128;9.986;2023-06-04T11:56:06;33.40;33.20
12370;DHT22;6249;52.128;9.986;2023-06-04T12:16:14;34.40;32.20
12370;DHT22;6249;52.128;9.986;2023-06-04T12:26:22;34.70;33.60
12370;DHT22;6249;52.128;9.986;2023-06-04T12:36:32;35.20;31.30
12370;DHT22;6249;52.128;9.986;2023-06-04T12:46:37;35.50;28.50
12370;DHT22;6249;52.128;9.986;2023-06-04T12:56:40;36.10;27.50
12370;DHT22;6249;52.128;9.986;2023-06-04T13:06:47;36.30;28.20
12370;DHT22;6249;52.128;9.986;2023-06-04T13:16:50;36.50;28.10
12370;DHT22;6249;52.128;9.986;2023-06-04T13:26:53;36.90;26.40
12370;DHT22;6249;52.128;9.986;2023-06-04T13:36:55;37.50;25.40
12370;DHT22;6249;52.128;9.986;2023-06-04T13:46:58;37.80;25.70
12370;DHT22;6249;52.128;9.986;2023-06-04T13:57:02;38.50;25.30
12370;DHT22;6249;52.128;9.986;2023-06-04T14:07:06;38.40;25.30
12370;DHT22;6249;52.128;9.986;2023-06-04T14:17:07;38.00;25.60
12370;DHT22;6249;52.128;9.986;2023-06-04T14:27:08;38.70;25.70
12370;DHT22;6249;52.128;9.986;2023-06-04T14:37:11;39.20;24.80
12370;DHT22;6249;52.128;9.986;2023-06-04T14:47:17;39.60;24.10
12370;DHT22;6249;52.128;9.986;2023-06-04T14:57:17;39.40;24.80
12370;DHT22;6249;52.128;9.986;2023-06-04T15:07:22;39.70;23.40
12370;DHT22;6249;52.128;9.986;2023-06-04T15:17:27;40.40;23.00
12370;DHT22;6249;52.128;9.986;2023-06-04T15:27:28;38.90;22.30
12370;DHT22;6249;52.128;9.986;2023-06-04T15:37:28;39.30;22.40
12370;DHT22;6249;52.128;9.986;2023-06-04T15:47:29;35.40;26.10
12370;DHT22;6249;52.128;9.986;2023-06-04T15:57:34;33.30;27.70
12370;DHT22;6249;52.128;9.986;2023-06-04T16:07:35;31.60;28.00
12370;DHT22;6249;52.128;9.986;2023-06-04T16:17:35;30.40;28.20
12370;DHT22;6249;52.128;9.986;2023-06-04T16:27:36;29.70;29.30
12370;DHT22;6249;52.128;9.986;2023-06-04T16:37:37;29.10;28.50
12370;DHT22;6249;52.128;9.986;2023-06-04T16:47:38;28.80;28.60
12370;DHT22;6249;52.128;9.986;2023-06-04T16:57:40;28.10;29.90
12370;DHT22;6249;52.128;9.986;2023-06-04T17:07:43;27.80;28.80
12370;DHT22;6249;52.128;9.986;2023-06-04T17:17:47;27.20;30.50
12370;DHT22;6249;52.128;9.986;2023-06-04T17:27:47;26.50;30.20
12370;DHT22;6249;52.128;9.986;2023-06-04T17:37:53;26.40;31.60
12370;DHT22;6249;52.128;9.986;2023-06-04T17:47:53;26.20;30.90
12370;DHT22;6249;52.128;9.986;2023-06-04T17:57:56;25.90;33.20
12370;DHT22;6249;52.128;9.986;2023-06-04T18:07:57;25.60;32.30
12370;DHT22;6249;52.128;9.986;2023-06-04T18:18:00;25.10;33.80
12370;DHT22;6249;52.128;9.986;2023-06-04T18:28:03;24.60;36.20
12370;DHT22;6249;52.128;9.986;2023-06-04T18:38:06;24.20;37.30
12370;DHT22;6249;52.128;9.986;2023-06-04T18:48:07;23.60;39.70
12370;DHT22;6249;52.128;9.986;2023-06-04T18:58:10;23.40;42.20
12370;DHT22;6249;52.128;9.986;2023-06-04T19:08:10;22.80;44.80
12370;DHT22;6249;52.128;9.986;2023-06-04T19:18:14;22.10;46.60
12370;DHT22;6249;52.128;9.986;2023-06-04T19:28:17;21.50;47.50
12370;DHT22;6249;52.128;9.986;2023-06-04T19:38:20;21.00;49.50
12370;DHT22;6249;52.128;9.986;2023-06-04T19:48:21;20.40;51.90
12370;DHT22;6249;52.128;9.986;2023-06-04T19:58:23;19.90;52.30
12370;DHT22;6249;52.128;9.986;2023-06-04T20:08:26;19.60;55.20
12370;DHT22;6249;52.128;9.986;2023-06-04T20:18:31;19.30;59.30
12370;DHT22;6249;52.128;9.986;2023-06-04T20:28:33;19.00;62.80
12370;DHT22;6249;52.128;9.986;2023-06-04T20:38:34;18.60;64.40
12370;DHT22;6249;52.128;9.986;2023-06-04T20:48:37;18.20;66.90
12370;DHT22;6249;52.128;9.986;2023-06-04T20:58:40;18.00;66.90
12370;DHT22;6249;52.128;9.986;2023-06-04T21:08:43;17.60;70.30
12370;DHT22;6249;52.128;9.986;2023-06-04T21:18:43;17.30;72.80
12370;DHT22;6249;52.128;9.986;2023-06-04T21:28:46;17.00;79.10
12370;DHT22;6249;52.128;9.986;2023-06-04T21:38:49;16.70;84.60
12370;DHT22;6249;52.128;9.986;2023-06-04T21:48:50;16.20;91.70
12370;DHT22;6249;52.128;9.986;2023-06-04T21:58:51;16.00;93.70
12370;DHT22;6249;52.128;9.986;2023-06-04T22:08:53;15.50;95.30
12370;DHT22;6249;52.128;9.986;2023-06-04T22:18:56;15.60;95.60
12370;DHT22;6249;52.128;9.986;2023-06-04T22:28:59;15.50;97.40
12370;DHT22;6249;52.128;9.986;2023-06-04T22:39:00;15.40;98.90
12370;DHT22;6249;52.128;9.986;2023-06-04T22:49:00;15.20;99.90
12370;DHT22;6249;52.128;9.986;2023-06-04T22:59:03;14.80;99.90
12370;DHT22;6249;52.128;9.986;2023-06-04T23:09:06;14.60;99.90
12370;DHT22;6249;52.128;9.986;2023-06-04T23:19:07;14.50;99.90
12370;DHT22;6249;52.128;9.986;2023-06-04T23:29:10;14.40;99.90
12370;DHT22;6249;52.128;9.986;2023-06-04T23:39:10;14.20;99.90
12370;DHT22;6249;52.128;9.986;2023-06-04T23:49:11;14.00;99.90
12370;DHT22;6249;52.128;9.986;2023-06-04T23:59:14;13.80;99.90
